createdAt,value
2022-09-21T00:01:20.180Z,99585.97
2022-09-21T00:03:48.575Z,99583.41
2022-09-21T00:06:19.372Z,99588.03
2022-09-21T00:08:47.276Z,99587.91
2022-09-21T00:11:19.601Z,99593.41
2022-09-21T00:13:47.859Z,99590.22
2022-09-21T00:16:16.987Z,99587.66
2022-09-21T00:18:44.920Z,99587.56
2022-09-21T00:21:14.954Z,99586.53
2022-09-21T00:23:45.135Z,99582.97
2022-09-21T00:26:16.920Z,99583.06
2022-09-21T00:28:45.150Z,99593.91
2022-09-21T00:31:15.516Z,99595.66
2022-09-21T00:33:43.895Z,99590.47
2022-09-21T00:36:14.942Z,99582.72
2022-09-21T00:38:42.802Z,99578.97
2022-09-21T00:41:11.693Z,99592.31
2022-09-21T00:43:45.107Z,99586.94
2022-09-21T00:46:26.401Z,99588.09
2022-09-21T00:48:54.088Z,99588.28
2022-09-21T00:51:21.901Z,99587.31
2022-09-21T00:53:54.843Z,99590.75
2022-09-21T00:56:23.087Z,99586.09
2022-09-21T00:58:52.570Z,99591.38
2022-09-21T01:01:20.287Z,99589.47
2022-09-21T01:03:48.324Z,99589.53
2022-09-21T01:06:18.644Z,99589.53
2022-09-21T01:08:52.549Z,99584.16
2022-09-21T01:31:13.380Z,99585.31
2022-09-21T01:33:46.481Z,99575.44
2022-09-21T01:36:17.685Z,99587.31
2022-09-21T01:38:49.886Z,99585.56
2022-09-21T01:41:21.106Z,99589.94
2022-09-21T01:43:53.200Z,99583.75
2022-09-21T01:46:22.081Z,99600.16
2022-09-21T01:48:53.299Z,99592.16
2022-09-21T01:51:22.184Z,99591.25
2022-09-21T01:53:56.333Z,99590.38
2022-09-21T01:56:28.322Z,99598.59
2022-09-21T01:59:18.126Z,99593.22
2022-09-21T02:01:51.078Z,99600.53
2022-09-21T02:04:18.616Z,99604.06
2022-09-21T02:06:47.387Z,99601.53
2022-09-21T02:09:15.166Z,99603.41
2022-09-21T02:11:43.895Z,99605.19
2022-09-21T02:14:18.126Z,99596.28
2022-09-21T02:16:56.358Z,99594.53
2022-09-21T02:25:11.842Z,99590.03
2022-09-21T02:28:01.900Z,99592.97
2022-09-21T02:30:31.366Z,99595.00
2022-09-21T02:33:21.435Z,99601.41
2022-09-21T02:35:54.388Z,99600.53
2022-09-21T02:38:50.394Z,99607.78
2022-09-21T02:44:06.379Z,99601.44
2022-09-21T02:46:41.781Z,99609.31
2022-09-21T02:49:18.458Z,99609.41
2022-09-21T02:51:48.874Z,99604.13
2022-09-21T02:54:20.096Z,99603.06
2022-09-21T02:56:49.007Z,99603.91
2022-09-21T02:59:16.648Z,99601.28
2022-09-21T03:01:44.317Z,99605.75
2022-09-21T03:04:11.944Z,99611.94
2022-09-21T03:06:39.547Z,99605.94
2022-09-21T03:09:07.250Z,99605.94
2022-09-21T03:11:36.074Z,99602.88
2022-09-21T03:14:11.010Z,99600.78
2022-09-21T03:16:39.100Z,99603.47
2022-09-21T03:19:06.683Z,99609.22
2022-09-21T03:21:34.256Z,99601.47
2022-09-21T03:24:02.251Z,99606.78
2022-09-21T03:26:29.961Z,99610.63
2022-09-21T03:28:57.600Z,99614.09
2022-09-21T03:31:25.491Z,99617.25
2022-09-21T03:33:53.526Z,99610.97
2022-09-21T03:36:21.085Z,99614.22
2022-09-21T03:38:50.963Z,99617.69
2022-09-21T03:41:18.895Z,99613.94
2022-09-21T03:43:46.498Z,99616.44
2022-09-21T03:46:14.002Z,99616.34
2022-09-21T03:48:42.404Z,99606.44
2022-09-21T03:51:09.951Z,99611.81
2022-09-21T03:53:37.431Z,99610.00
2022-09-21T03:56:05.230Z,99607.38
2022-09-21T03:58:32.818Z,99608.19
2022-09-21T04:01:02.841Z,99610.94
2022-09-21T04:03:30.368Z,99609.41
2022-09-21T04:05:57.879Z,99613.75
2022-09-21T04:08:25.406Z,99614.63
2022-09-21T04:10:52.883Z,99624.66
2022-09-21T04:13:23.185Z,99614.09
2022-09-21T04:15:50.876Z,99620.09
2022-09-21T04:18:18.658Z,99622.03
2022-09-21T04:20:46.136Z,99628.31
2022-09-21T04:23:13.635Z,99626.38
2022-09-21T04:25:44.899Z,99631.59
2022-09-21T04:28:12.926Z,99624.44
2022-09-21T04:30:40.456Z,99638.81
2022-09-21T04:33:08.065Z,99628.13
2022-09-21T04:35:35.551Z,99636.28
2022-09-21T04:38:03.351Z,99628.28
2022-09-21T04:40:31.411Z,99635.75
2022-09-21T04:42:58.893Z,99636.91
2022-09-21T04:45:26.436Z,99641.78
2022-09-21T04:47:54.862Z,99647.69
2022-09-21T04:50:22.316Z,99643.00
2022-09-21T04:52:49.791Z,99649.25
2022-09-21T04:55:17.495Z,99643.97
2022-09-21T04:57:45.091Z,99651.25
2022-09-21T05:00:12.969Z,99647.69
2022-09-21T05:02:40.462Z,99652.44
2022-09-21T05:05:08.167Z,99649.84
2022-09-21T05:07:35.661Z,99660.81
2022-09-21T05:10:03.286Z,99660.81
2022-09-21T05:12:32.661Z,99656.22
2022-09-21T05:15:00.794Z,99653.63
2022-09-21T05:17:29.155Z,99656.28
2022-09-21T05:19:56.659Z,99659.00
2022-09-21T05:22:24.369Z,99659.88
2022-09-21T05:24:52.061Z,99664.28
2022-09-21T05:27:20.153Z,99671.47
2022-09-21T05:29:48.326Z,99654.47
2022-09-21T05:32:25.007Z,99657.09
2022-09-21T05:40:31.660Z,99668.63
2022-09-21T05:42:59.822Z,99663.56
2022-09-21T05:45:28.933Z,99671.34
2022-09-21T05:48:12.327Z,99673.06
2022-09-21T05:50:48.549Z,99666.88
2022-09-21T05:53:46.445Z,99678.53
2022-09-21T05:56:53.945Z,99668.16
2022-09-21T05:59:45.122Z,99677.78
2022-09-21T06:02:52.732Z,99668.53
2022-09-21T06:05:20.881Z,99680.19
2022-09-21T06:07:48.487Z,99687.91
2022-09-21T06:10:16.218Z,99683.47
2022-09-21T06:12:44.166Z,99688.50
2022-09-21T06:15:16.426Z,99685.91
2022-09-21T06:17:44.096Z,99689.81
2022-09-21T06:20:11.668Z,99694.00
2022-09-21T06:22:39.310Z,99693.16
2022-09-21T06:25:07.614Z,99690.91
2022-09-21T06:27:35.853Z,99692.75
2022-09-21T06:30:03.632Z,99701.94
2022-09-21T06:32:31.310Z,99698.34
2022-09-21T06:34:58.823Z,99700.09
2022-09-21T06:37:26.352Z,99700.22
2022-09-21T06:39:53.891Z,99697.31
2022-09-21T06:42:21.446Z,99696.28
2022-09-21T06:44:49.181Z,99692.53
2022-09-21T06:47:16.966Z,99701.50
2022-09-21T06:49:44.601Z,99700.53
2022-09-21T06:52:12.225Z,99691.97
2022-09-21T06:54:40.872Z,99694.41
2022-09-21T06:57:08.388Z,99697.06
2022-09-21T06:59:35.856Z,99693.22
2022-09-21T07:02:09.456Z,99696.25
2022-09-21T07:04:37.163Z,99682.38
2022-09-21T07:07:05.310Z,99690.25
2022-09-21T07:12:20.386Z,99690.84
2022-09-21T07:14:48.114Z,99687.53
2022-09-21T07:17:15.996Z,99688.94
2022-09-21T07:19:43.598Z,99685.47
2022-09-21T07:22:11.158Z,99693.88
2022-09-21T07:24:38.971Z,99684.56
2022-09-21T07:27:07.448Z,99683.00
2022-09-21T07:29:35.315Z,99692.84
2022-09-21T07:32:03.063Z,99682.69
2022-09-21T07:34:35.145Z,99687.66
2022-09-21T07:37:03.309Z,99691.84
2022-09-21T07:39:30.890Z,99690.31
2022-09-21T07:41:58.732Z,99687.66
2022-09-21T07:44:26.662Z,99686.47
2022-09-21T07:46:54.455Z,99700.13
2022-09-21T07:49:22.109Z,99690.19
2022-09-21T07:51:50.021Z,99694.53
2022-09-21T07:54:17.548Z,99695.16
2022-09-21T07:57:04.978Z,99692.84
2022-09-21T07:59:32.869Z,99681.69
2022-09-21T08:02:00.499Z,99684.97
2022-09-21T08:04:34.213Z,99686.91
2022-09-21T08:07:01.795Z,99683.47
2022-09-21T08:09:30.968Z,99681.22
2022-09-21T08:12:01.399Z,99678.38
2022-09-21T08:14:29.291Z,99678.19
2022-09-21T08:16:57.287Z,99676.38
2022-09-21T08:19:26.541Z,99675.69
2022-09-21T08:21:57.491Z,99669.91
2022-09-21T08:24:26.865Z,99678.44
2022-09-21T08:26:56.105Z,99675.53
2022-09-21T08:29:25.282Z,99679.03
2022-09-21T08:31:53.636Z,99671.03
2022-09-21T08:34:21.575Z,99679.19
2022-09-21T08:36:54.443Z,99672.06
2022-09-21T08:39:23.778Z,99666.25
2022-09-21T08:42:04.543Z,99668.94
2022-09-21T08:44:40.014Z,99663.69
2022-09-21T08:47:20.489Z,99672.13
2022-09-21T08:49:53.556Z,99657.38
2022-09-21T08:52:21.963Z,99661.00
2022-09-21T08:55:01.395Z,99662.03
2022-09-21T08:57:31.081Z,99660.56
2022-09-21T08:59:59.755Z,99661.16
2022-09-21T09:02:57.512Z,99652.16
2022-09-21T09:11:25.702Z,99642.22
2022-09-21T09:14:19.564Z,99640.34
2022-09-21T09:17:04.423Z,99630.31
2022-09-21T09:22:23.784Z,99627.59
2022-09-21T09:24:52.909Z,99623.75
2022-09-21T09:30:25.871Z,99619.59
2022-09-21T09:46:46.024Z,99610.38
2022-09-21T09:51:53.718Z,99602.38
2022-09-21T09:54:24.707Z,99600.06
2022-09-21T09:56:53.033Z,99606.91
2022-09-21T09:59:30.551Z,99606.66
2022-09-21T10:02:08.488Z,99612.47
2022-09-21T10:04:36.384Z,99600.13
2022-09-21T10:07:04.305Z,99599.22
2022-09-21T10:09:33.528Z,99596.47
2022-09-21T10:12:10.127Z,99597.63
2022-09-21T10:14:38.294Z,99596.97
2022-09-21T10:17:07.946Z,99594.75
2022-09-21T10:19:35.654Z,99592.09
2022-09-21T10:22:04.950Z,99588.53
2022-09-21T10:24:36.637Z,99591.13
2022-09-21T10:27:12.305Z,99590.56
2022-09-21T10:29:46.184Z,99586.75
2022-09-21T10:37:53.714Z,99587.97
2022-09-21T10:43:00.560Z,99583.19
2022-09-21T10:45:30.638Z,99577.03
2022-09-21T10:48:08.145Z,99571.41
2022-09-21T10:50:52.635Z,99562.28
2022-09-21T10:53:30.453Z,99570.44
2022-09-21T10:58:40.437Z,99566.94
2022-09-21T11:01:23.662Z,99573.16
2022-09-21T11:04:05.311Z,99568.78
2022-09-21T11:06:45.969Z,99569.38
2022-09-21T11:12:25.492Z,99572.69
2022-09-21T11:17:41.163Z,99565.22
2022-09-21T11:20:22.790Z,99574.94
2022-09-21T11:23:00.004Z,99560.16
2022-09-21T11:30:58.716Z,99554.31
2022-09-21T11:39:09.003Z,99547.22
2022-09-21T12:12:33.416Z,99510.06
2022-09-21T12:20:52.641Z,99514.38
2022-09-21T12:23:26.686Z,99508.25
2022-09-21T12:25:57.212Z,99514.41
2022-09-21T12:28:28.872Z,99505.34
2022-09-21T12:31:04.925Z,99510.84
2022-09-21T12:33:47.546Z,99500.44
2022-09-21T12:36:20.741Z,99511.56
2022-09-21T12:44:56.744Z,99498.06
2022-09-21T12:50:21.779Z,99504.94
2022-09-21T12:52:51.006Z,99502.59
2022-09-21T12:58:16.797Z,99501.31
2022-09-21T13:03:39.899Z,99498.09
2022-09-21T13:08:46.970Z,99501.16
2022-09-21T13:11:20.992Z,99496.19
2022-09-21T13:13:53.301Z,99497.50
2022-09-21T13:16:26.859Z,99489.09
2022-09-21T13:18:59.518Z,99492.72
2022-09-21T13:21:29.965Z,99492.09
2022-09-21T13:24:00.696Z,99485.59
2022-09-21T13:26:39.597Z,99492.66
2022-09-21T13:34:41.427Z,99480.81
2022-09-21T13:56:01.662Z,99470.44
2022-09-21T13:58:35.958Z,99463.38
2022-09-21T14:01:35.549Z,99455.13
2022-09-21T14:04:17.200Z,99463.31
2022-09-21T14:06:49.316Z,99458.13
2022-09-21T14:09:51.571Z,99463.31
2022-09-21T14:12:25.098Z,99455.97
2022-09-21T14:24:21.132Z,99449.00
2022-09-21T14:26:56.969Z,99444.94
2022-09-21T14:29:32.567Z,99440.88
2022-09-21T14:32:03.443Z,99445.91
2022-09-21T14:34:36.965Z,99438.28
2022-09-21T14:37:19.999Z,99450.00
2022-09-21T14:39:49.393Z,99440.00
2022-09-21T14:42:26.069Z,99441.09
2022-09-21T14:44:56.991Z,99445.25
2022-09-21T14:47:55.487Z,99438.66
2022-09-21T15:00:55.932Z,99422.38
2022-09-21T15:11:47.162Z,99411.75
2022-09-21T15:16:56.090Z,99422.41
2022-09-21T15:19:29.716Z,99417.78
2022-09-21T15:22:16.539Z,99412.34
2022-09-21T15:24:55.563Z,99412.06
2022-09-21T15:27:27.178Z,99405.19
2022-09-21T15:29:56.454Z,99409.47
2022-09-21T15:37:55.797Z,99396.31
2022-09-21T15:40:27.362Z,99405.94
2022-09-21T15:45:59.279Z,99402.91
2022-09-21T15:51:23.281Z,99408.94
2022-09-21T15:53:57.632Z,99396.41
2022-09-21T15:56:27.609Z,99394.97
2022-09-21T15:59:08.544Z,99401.47
2022-09-21T16:01:47.673Z,99401.03
2022-09-21T16:04:21.994Z,99408.19
2022-09-21T16:07:32.403Z,99401.38
2022-09-21T16:10:00.916Z,99405.81
2022-09-21T16:15:31.969Z,99402.47
2022-09-21T16:18:02.935Z,99396.69
2022-09-21T16:20:48.129Z,99399.03
2022-09-21T16:23:24.258Z,99406.91
2022-09-21T16:26:00.699Z,99408.69
2022-09-21T16:31:29.866Z,99412.34
2022-09-21T16:34:02.305Z,99410.69
2022-09-21T16:39:15.289Z,99418.00
2022-09-21T16:41:48.100Z,99418.69
2022-09-21T16:44:20.933Z,99413.00
2022-09-21T16:46:55.995Z,99423.44
2022-09-21T16:49:30.173Z,99422.31
2022-09-21T16:51:59.723Z,99423.25
2022-09-21T16:54:27.723Z,99424.16
2022-09-21T16:57:00.015Z,99423.63
2022-09-21T16:59:28.311Z,99422.75
2022-09-21T17:01:58.451Z,99422.00
2022-09-21T17:04:28.597Z,99425.38
2022-09-21T17:06:57.126Z,99430.38
2022-09-21T17:12:09.041Z,99423.25
2022-09-21T17:14:45.649Z,99419.22
2022-09-21T17:19:57.597Z,99436.88
2022-09-21T17:22:25.422Z,99433.47
2022-09-21T17:24:54.849Z,99427.13
2022-09-21T17:27:26.748Z,99424.09
2022-09-21T17:29:56.382Z,99432.88
2022-09-21T17:32:24.745Z,99429.81
2022-09-21T17:35:00.177Z,99431.31
2022-09-21T17:37:27.572Z,99433.09
2022-09-21T17:39:54.780Z,99433.25
2022-09-21T17:42:24.966Z,99433.16
2022-09-21T17:47:38.099Z,99436.50
2022-09-21T17:50:26.853Z,99442.03
2022-09-21T17:53:16.054Z,99446.44
2022-09-21T17:55:54.221Z,99441.34
2022-09-21T18:03:44.512Z,99454.78
2022-09-21T18:06:12.587Z,99453.56
2022-09-21T18:08:40.613Z,99458.59
2022-09-21T18:25:49.186Z,99479.16
2022-09-21T18:28:25.304Z,99484.25
2022-09-21T18:34:34.967Z,99484.44
2022-09-21T18:37:48.598Z,99489.41
2022-09-21T18:43:25.618Z,99485.91
2022-09-21T18:46:05.407Z,99484.44
2022-09-21T18:54:00.101Z,99497.41
2022-09-21T18:56:34.863Z,99501.13
2022-09-21T18:59:03.531Z,99500.25
2022-09-21T19:01:33.767Z,99498.97
2022-09-21T19:04:01.736Z,99493.56
2022-09-21T19:09:43.185Z,99496.47
2022-09-21T19:15:55.586Z,99503.63
2022-09-21T19:18:36.825Z,99505.03
2022-09-21T19:21:41.829Z,99494.06
2022-09-21T19:24:33.417Z,99495.38
2022-09-21T19:32:58.108Z,99499.94
2022-09-21T19:38:04.115Z,99509.31
2022-09-21T19:40:36.911Z,99501.09
2022-09-21T19:46:17.328Z,99512.63
2022-09-21T19:48:47.183Z,99509.75
2022-09-21T19:54:18.235Z,99508.31
2022-09-21T19:57:08.980Z,99508.88
2022-09-21T19:59:44.270Z,99514.59
2022-09-21T20:02:27.076Z,99517.28
2022-09-21T20:04:58.269Z,99516.41
2022-09-21T20:18:48.952Z,99511.09
2022-09-21T20:21:22.261Z,99504.44
2022-09-21T20:23:58.669Z,99506.78
2022-09-21T20:26:27.689Z,99506.53
2022-09-21T20:28:55.495Z,99508.44
2022-09-21T20:31:25.502Z,99513.13
2022-09-21T20:33:52.665Z,99515.31
2022-09-21T20:36:19.724Z,99511.94
2022-09-21T20:38:46.752Z,99515.72
2022-09-21T20:41:16.735Z,99519.22
2022-09-21T20:43:44.100Z,99516.66
2022-09-21T20:46:11.938Z,99519.88
2022-09-21T20:48:40.000Z,99523.28
2022-09-21T20:51:07.186Z,99519.69
2022-09-21T20:53:34.534Z,99526.84
2022-09-21T20:56:02.621Z,99531.44
2022-09-21T20:58:30.628Z,99535.16
2022-09-21T21:01:05.417Z,99539.84
2022-09-21T21:03:33.491Z,99549.84
2022-09-21T21:06:18.658Z,99543.66
2022-09-21T21:08:46.582Z,99551.69
2022-09-21T21:11:14.490Z,99549.28
2022-09-21T21:13:42.629Z,99547.53
2022-09-21T21:16:12.410Z,99543.28
2022-09-21T21:18:41.017Z,99549.53
2022-09-21T21:21:08.901Z,99547.06
2022-09-21T21:23:57.148Z,99540.00
2022-09-21T21:26:38.508Z,99546.50
2022-09-21T21:29:12.333Z,99551.88
2022-09-21T21:31:40.955Z,99547.63
2022-09-21T21:34:08.674Z,99549.50
2022-09-21T21:36:36.094Z,99538.50
2022-09-21T21:39:03.662Z,99541.66
2022-09-21T21:41:32.526Z,99536.47
2022-09-21T21:43:59.966Z,99540.25
2022-09-21T21:46:27.141Z,99539.59
2022-09-21T21:48:54.221Z,99539.75
2022-09-21T21:51:21.658Z,99533.50
2022-09-21T21:53:48.769Z,99540.75
2022-09-21T21:56:17.471Z,99533.72
2022-09-21T21:58:44.734Z,99535.69
2022-09-21T22:01:20.828Z,99537.56
2022-09-21T22:03:54.046Z,99539.59
2022-09-21T22:06:22.427Z,99533.38
2022-09-21T22:08:51.568Z,99538.13
2022-09-21T22:11:19.891Z,99540.81
2022-09-21T22:13:47.496Z,99531.91
2022-09-21T22:16:19.677Z,99539.09
2022-09-21T22:18:47.170Z,99536.94
2022-09-21T22:21:21.554Z,99536.47
2022-09-21T22:24:00.215Z,99531.13
2022-09-21T22:26:36.444Z,99533.69
2022-09-21T22:29:06.127Z,99529.22
2022-09-21T22:31:38.645Z,99535.34
2022-09-21T22:34:06.502Z,99526.47
2022-09-21T22:36:36.559Z,99523.91
2022-09-21T22:39:06.905Z,99526.59
2022-09-21T22:41:37.799Z,99530.25
2022-09-21T22:44:05.436Z,99524.13
2022-09-21T22:46:33.467Z,99532.19
2022-09-21T22:49:00.783Z,99524.19
2022-09-21T22:51:29.497Z,99527.00
2022-09-21T22:53:57.631Z,99529.66
2022-09-21T22:56:29.693Z,99524.31
2022-09-21T22:58:59.285Z,99524.28
2022-09-21T23:01:38.287Z,99521.78
2022-09-21T23:04:11.560Z,99525.25
2022-09-21T23:06:43.257Z,99518.16
2022-09-21T23:09:16.480Z,99524.53
2022-09-21T23:11:53.188Z,99520.16
2022-09-21T23:14:22.728Z,99522.97
2022-09-21T23:16:53.175Z,99522.28
2022-09-21T23:19:20.439Z,99519.75
2022-09-21T23:21:50.077Z,99518.06
2022-09-21T23:24:18.677Z,99513.75
2022-09-21T23:26:47.150Z,99507.56
2022-09-21T23:29:16.202Z,99507.81
2022-09-21T23:31:45.846Z,99509.69
2022-09-21T23:34:15.085Z,99515.94
2022-09-21T23:36:43.874Z,99517.88
2022-09-21T23:39:13.973Z,99511.69
2022-09-21T23:41:41.819Z,99513.69
2022-09-21T23:44:09.265Z,99512.81
2022-09-21T23:46:39.058Z,99512.94
2022-09-21T23:49:06.703Z,99509.38
2022-09-21T23:51:34.480Z,99517.38
2022-09-21T23:54:02.171Z,99505.00
2022-09-21T23:56:30.227Z,99505.88
2022-09-21T23:58:58.010Z,99506.88
